createdAt,value
2022-08-17T00:02:26.048Z,98366.22
2022-08-17T00:04:54.165Z,98373.19
2022-08-17T00:07:21.436Z,98371.56
2022-08-17T00:09:48.373Z,98377.16
2022-08-17T00:12:41.535Z,98374.47
2022-08-17T00:15:03.845Z,98370.16
2022-08-17T00:17:32.113Z,98381.69
2022-08-17T00:20:00.284Z,98435.00
2022-08-17T00:22:31.423Z,98470.22
2022-08-17T00:25:05.358Z,98467.41
2022-08-17T00:27:32.236Z,98455.66
2022-08-17T00:29:59.343Z,98455.91
2022-08-17T00:33:11.959Z,98457.00
2022-08-17T00:35:17.729Z,98465.03
2022-08-17T00:37:44.673Z,98466.66
2022-08-17T00:40:14.469Z,98474.75
2022-08-17T00:42:43.376Z,98482.78
2022-08-17T00:45:14.573Z,98493.09
2022-08-17T00:47:42.481Z,98486.84
2022-08-17T00:50:12.861Z,98495.69
2022-08-17T00:52:45.478Z,98502.38
2022-08-17T00:55:12.822Z,98505.25
2022-08-17T00:57:45.387Z,98494.41
2022-08-17T01:00:16.764Z,98500.91
2022-08-17T01:02:45.288Z,98500.88
2022-08-17T01:05:16.539Z,98499.66
2022-08-17T01:07:48.081Z,98488.94
2022-08-17T01:10:59.360Z,98486.84
2022-08-17T01:13:05.360Z,98479.19
2022-08-17T01:15:36.635Z,98492.81
2022-08-17T01:18:05.444Z,98493.03
2022-08-17T01:20:48.240Z,98494.00
2022-08-17T01:23:20.680Z,98478.31
2022-08-17T01:25:50.927Z,98448.47
2022-08-17T01:28:36.476Z,98417.47
2022-08-17T01:31:07.298Z,98391.56
2022-08-17T01:33:34.493Z,98387.09
2022-08-17T01:36:01.668Z,98386.94
2022-08-17T01:38:31.912Z,98388.34
2022-08-17T01:41:02.069Z,98383.16
2022-08-17T01:43:33.052Z,98387.25
2022-08-17T01:46:03.771Z,98386.03
2022-08-17T01:48:35.060Z,98393.66
2022-08-17T01:51:02.138Z,98395.91
2022-08-17T01:53:34.959Z,98397.75
2022-08-17T01:56:08.624Z,98392.19
2022-08-17T01:58:36.898Z,98389.28
2022-08-17T02:01:04.842Z,98392.56
2022-08-17T02:03:32.627Z,98405.78
2022-08-17T02:05:59.530Z,98412.13
2022-08-17T02:08:39.576Z,98410.88
2022-08-17T02:11:19.446Z,98408.81
2022-08-17T02:13:47.669Z,98406.13
2022-08-17T02:16:22.178Z,98418.88
2022-08-17T02:18:49.145Z,98426.97
2022-08-17T02:21:16.062Z,98440.13
2022-08-17T02:23:47.620Z,98437.06
2022-08-17T02:26:23.869Z,98449.00
2022-08-17T02:28:53.622Z,98455.19
2022-08-17T02:31:21.368Z,98456.47
2022-08-17T02:34:00.226Z,98451.47
2022-08-17T02:36:31.941Z,98435.38
2022-08-17T02:39:00.264Z,98426.72
2022-08-17T02:41:28.611Z,98431.84
2022-08-17T02:43:55.504Z,98437.25
2022-08-17T02:46:22.706Z,98442.41
2022-08-17T02:48:49.697Z,98447.44
2022-08-17T02:51:16.597Z,98443.44
2022-08-17T02:53:43.705Z,98442.31
2022-08-17T02:56:10.577Z,98449.06
2022-08-17T02:58:39.018Z,98454.56
2022-08-17T03:01:07.463Z,98469.06
2022-08-17T03:03:35.690Z,98471.34
2022-08-17T03:06:02.767Z,98462.03
2022-08-17T03:08:30.618Z,98452.31
2022-08-17T03:10:57.631Z,98445.31
2022-08-17T03:13:24.556Z,98433.16
2022-08-17T03:15:52.781Z,98428.44
2022-08-17T03:18:25.510Z,98420.63
2022-08-17T03:20:54.109Z,98423.09
2022-08-17T03:23:24.009Z,98430.50
2022-08-17T03:25:53.955Z,98433.16
2022-08-17T03:28:21.843Z,98424.50
2022-08-17T03:30:48.954Z,98424.72
2022-08-17T03:33:17.623Z,98410.75
2022-08-17T03:35:45.210Z,98405.59
2022-08-17T03:38:15.229Z,98405.41
2022-08-17T03:40:58.454Z,98410.91
2022-08-17T03:43:27.728Z,98406.38
2022-08-17T03:46:34.358Z,98399.38
2022-08-17T03:49:20.108Z,98394.47
2022-08-17T03:52:05.332Z,98413.63
2022-08-17T03:54:50.918Z,98421.47
2022-08-17T03:57:19.219Z,98423.50
2022-08-17T03:59:46.492Z,98415.09
2022-08-17T04:02:19.051Z,98419.03
2022-08-17T04:04:51.008Z,98411.59
2022-08-17T04:07:19.232Z,98401.53
2022-08-17T04:09:46.213Z,98390.63
2022-08-17T04:12:15.336Z,98388.19
2022-08-17T04:14:53.029Z,98385.94
2022-08-17T04:17:24.326Z,98383.44
2022-08-17T04:19:53.472Z,98390.28
2022-08-17T04:22:33.408Z,98384.97
2022-08-17T04:25:16.004Z,98388.28
2022-08-17T04:27:42.947Z,98382.50
2022-08-17T04:30:11.017Z,98380.22
2022-08-17T04:33:04.768Z,98374.06
2022-08-17T04:35:38.015Z,98378.00
2022-08-17T04:38:05.523Z,98376.31
2022-08-17T04:40:51.226Z,98370.56
2022-08-17T04:43:20.377Z,98373.44
2022-08-17T04:45:55.373Z,98374.88
2022-08-17T04:48:36.651Z,98387.63
2022-08-17T04:51:09.788Z,98394.06
2022-08-17T04:53:38.154Z,98396.91
2022-08-17T04:56:05.608Z,98396.72
2022-08-17T04:58:32.546Z,98395.28
2022-08-17T05:00:59.907Z,98394.91
2022-08-17T05:03:26.898Z,98400.00
2022-08-17T05:05:53.863Z,98409.06
2022-08-17T05:08:22.251Z,98412.47
2022-08-17T05:10:50.378Z,98417.19
2022-08-17T05:13:19.669Z,98407.88
2022-08-17T05:15:48.141Z,98403.31
2022-08-17T05:18:16.684Z,98399.97
2022-08-17T05:20:44.343Z,98392.84
2022-08-17T05:23:13.844Z,98404.84
2022-08-17T05:25:47.722Z,98414.53
2022-08-17T05:28:15.914Z,98414.03
2022-08-17T05:30:44.213Z,98425.06
2022-08-17T05:33:13.642Z,98418.38
2022-08-17T05:35:46.970Z,98413.06
2022-08-17T05:38:14.424Z,98413.50
2022-08-17T05:40:43.236Z,98412.69
2022-08-17T05:43:12.869Z,98421.69
2022-08-17T05:45:55.755Z,98423.09
2022-08-17T05:48:35.437Z,98421.91
2022-08-17T05:51:23.937Z,98425.94
2022-08-17T05:54:02.071Z,98431.22
2022-08-17T05:56:42.742Z,98432.31
2022-08-17T05:59:17.241Z,98436.34
2022-08-17T06:01:52.672Z,98442.16
2022-08-17T06:04:35.582Z,98440.75
2022-08-17T06:07:17.384Z,98449.25
2022-08-17T06:09:50.616Z,98445.19
2022-08-17T06:12:34.023Z,98453.03
2022-08-17T06:15:15.176Z,98447.44
2022-08-17T06:17:43.346Z,98450.13
2022-08-17T06:20:13.231Z,98445.81
2022-08-17T06:22:44.660Z,98438.00
2022-08-17T06:25:13.704Z,98424.28
2022-08-17T06:27:47.429Z,98408.44
2022-08-17T06:30:24.744Z,98408.50
2022-08-17T06:32:53.442Z,98424.19
2022-08-17T06:35:32.082Z,98412.97
2022-08-17T06:38:07.792Z,98412.31
2022-08-17T06:41:05.492Z,98424.66
2022-08-17T06:43:50.846Z,98429.50
2022-08-17T06:46:23.517Z,98419.69
2022-08-17T06:49:09.652Z,98415.00
2022-08-17T06:51:40.439Z,98427.91
2022-08-17T06:54:11.508Z,98416.00
2022-08-17T06:56:52.952Z,98414.69
2022-08-17T06:59:26.260Z,98427.66
2022-08-17T07:02:05.616Z,98425.47
2022-08-17T07:04:34.571Z,98424.66
2022-08-17T07:07:27.699Z,98417.41
2022-08-17T07:09:59.009Z,98394.84
2022-08-17T07:12:29.776Z,98415.09
2022-08-17T07:15:05.480Z,98445.63
2022-08-17T07:17:48.107Z,98436.06
2022-08-17T07:20:20.573Z,98442.25
2022-08-17T07:23:00.030Z,98453.38
2022-08-17T07:25:30.715Z,98454.81
2022-08-17T07:28:00.330Z,98456.16
2022-08-17T07:30:30.690Z,98452.34
2022-08-17T07:33:13.440Z,98466.47
2022-08-17T07:35:43.917Z,98476.69
2022-08-17T07:38:25.310Z,98498.91
2022-08-17T07:41:02.821Z,98513.03
2022-08-17T07:43:31.921Z,98524.56
2022-08-17T07:46:37.975Z,98534.31
2022-08-17T07:49:34.989Z,98532.28
2022-08-17T07:52:24.146Z,98533.72
2022-08-17T07:54:52.676Z,98546.06
2022-08-17T07:57:35.312Z,98547.28
2022-08-17T08:00:19.443Z,98550.50
2022-08-17T08:03:14.884Z,98555.66
2022-08-17T08:05:52.101Z,98560.88
2022-08-17T08:08:25.654Z,98555.91
2022-08-17T08:11:00.745Z,98554.94
2022-08-17T08:13:30.220Z,98551.41
2022-08-17T08:16:15.165Z,98547.06
2022-08-17T08:18:54.369Z,98546.91
2022-08-17T08:21:31.875Z,98552.28
2022-08-17T08:24:10.052Z,98557.34
2022-08-17T08:26:44.442Z,98541.56
2022-08-17T08:29:28.268Z,98546.78
2022-08-17T08:32:03.476Z,98541.81
2022-08-17T08:35:01.270Z,98533.88
2022-08-17T08:37:44.828Z,98559.31
2022-08-17T08:40:31.811Z,98566.03
2022-08-17T08:43:08.828Z,98541.38
2022-08-17T08:45:45.165Z,98524.41
2022-08-17T08:48:56.280Z,98512.38
2022-08-17T08:51:21.264Z,98528.69
2022-08-17T08:53:58.702Z,98531.59
2022-08-17T08:56:34.325Z,98527.28
2022-08-17T08:59:10.419Z,98535.75
2022-08-17T09:01:53.219Z,98536.41
2022-08-17T09:05:02.703Z,98538.91
2022-08-17T09:07:34.802Z,98544.66
2022-08-17T09:10:09.484Z,98534.63
2022-08-17T09:12:47.603Z,98549.94
2022-08-17T09:15:19.159Z,98526.16
2022-08-17T09:18:08.630Z,98542.75
2022-08-17T09:20:50.071Z,98529.09
2022-08-17T09:23:32.535Z,98536.34
2022-08-17T09:26:03.971Z,98535.56
2022-08-17T09:28:35.195Z,98521.50
2022-08-17T09:31:08.056Z,98528.72
2022-08-17T09:33:39.946Z,98528.69
2022-08-17T09:36:14.402Z,98530.81
2022-08-17T09:38:52.936Z,98521.31
2022-08-17T09:41:25.147Z,98531.69
2022-08-17T09:43:58.697Z,98535.50
2022-08-17T09:46:30.691Z,98550.53
2022-08-17T09:49:03.486Z,98557.03
2022-08-17T09:51:35.607Z,98562.34
2022-08-17T09:54:21.390Z,98562.78
2022-08-17T09:57:28.119Z,98558.03
2022-08-17T10:00:16.698Z,98559.88
2022-08-17T10:03:11.784Z,98554.44
2022-08-17T10:05:47.870Z,98551.88
2022-08-17T10:08:24.116Z,98549.84
2022-08-17T10:11:05.809Z,98551.41
2022-08-17T10:13:41.732Z,98541.38
2022-08-17T10:16:28.961Z,98549.59
2022-08-17T10:19:10.493Z,98553.63
2022-08-17T10:22:00.918Z,98552.56
2022-08-17T10:25:02.027Z,98562.88
2022-08-17T10:27:43.955Z,98565.84
2022-08-17T10:30:16.779Z,98570.53
2022-08-17T10:32:50.215Z,98576.69
2022-08-17T10:35:29.218Z,98572.41
2022-08-17T10:38:21.641Z,98570.66
2022-08-17T10:40:57.420Z,98576.78
2022-08-17T10:43:36.842Z,98575.06
2022-08-17T10:46:31.388Z,98587.53
2022-08-17T10:49:24.119Z,98582.53
2022-08-17T10:51:54.363Z,98572.84
2022-08-17T10:54:40.675Z,98573.25
2022-08-17T10:57:40.021Z,98561.88
2022-08-17T11:00:58.761Z,98566.78
2022-08-17T11:03:26.679Z,98579.72
2022-08-17T11:06:04.354Z,98567.31
2022-08-17T11:08:57.882Z,98562.75
2022-08-17T11:11:59.521Z,98557.59
2022-08-17T11:14:48.020Z,98555.69
2022-08-17T11:17:30.126Z,98553.44
2022-08-17T11:20:49.212Z,98554.25
2022-08-17T11:23:32.579Z,98551.53
2022-08-17T11:26:08.421Z,98543.94
2022-08-17T11:28:48.858Z,98548.81
2022-08-17T11:31:38.952Z,98549.94
2022-08-17T11:34:14.608Z,98552.91
2022-08-17T11:37:38.573Z,98547.53
2022-08-17T11:40:38.950Z,98545.09
2022-08-17T11:43:29.254Z,98548.28
2022-08-17T11:46:17.014Z,98553.78
2022-08-17T11:49:14.451Z,98544.25
2022-08-17T11:52:12.517Z,98550.22
2022-08-17T11:54:45.080Z,98541.69
2022-08-17T11:57:54.544Z,98547.44
2022-08-17T12:00:54.772Z,98552.91
2022-08-17T12:03:26.622Z,98540.72
2022-08-17T12:06:04.040Z,98546.16
2022-08-17T12:08:43.480Z,98549.69
2022-08-17T12:11:16.423Z,98552.63
2022-08-17T12:14:05.016Z,98549.56
2022-08-17T12:16:32.923Z,98548.16
2022-08-17T12:19:02.768Z,98536.72
2022-08-17T12:21:53.804Z,98534.72
2022-08-17T12:24:33.203Z,98525.72
2022-08-17T12:27:04.435Z,98530.06
2022-08-17T12:29:35.986Z,98531.44
2022-08-17T12:32:07.160Z,98528.31
2022-08-17T12:34:38.784Z,98528.78
2022-08-17T12:37:12.814Z,98523.69
2022-08-17T12:39:51.337Z,98518.59
2022-08-17T12:42:23.814Z,98514.34
2022-08-17T12:44:50.949Z,98527.16
2022-08-17T12:47:22.832Z,98519.81
2022-08-17T12:49:52.248Z,98511.22
2022-08-17T12:52:26.707Z,98506.13
2022-08-17T12:54:59.596Z,98505.34
2022-08-17T12:57:29.285Z,98495.91
2022-08-17T12:59:59.507Z,98502.00
2022-08-17T13:02:31.707Z,98502.41
2022-08-17T13:05:00.900Z,98493.06
2022-08-17T13:07:30.567Z,98505.00
2022-08-17T13:09:59.054Z,98493.63
2022-08-17T13:12:31.066Z,98491.47
2022-08-17T13:14:58.445Z,98489.25
2022-08-17T13:17:31.142Z,98480.00
2022-08-17T13:19:58.814Z,98485.31
2022-08-17T13:22:29.458Z,98488.03
2022-08-17T13:25:00.886Z,98490.91
2022-08-17T13:27:29.207Z,98486.81
2022-08-17T13:29:59.610Z,98483.59
2022-08-17T13:32:40.010Z,98478.47
2022-08-17T13:35:34.501Z,98480.31
2022-08-17T13:38:09.601Z,98482.31
2022-08-17T13:40:42.353Z,98464.19
2022-08-17T13:43:10.614Z,98466.88
2022-08-17T13:45:50.333Z,98463.31
2022-08-17T13:48:24.897Z,98456.75
2022-08-17T13:51:07.243Z,98452.41
2022-08-17T13:53:52.289Z,98451.53
2022-08-17T13:56:33.210Z,98453.63
2022-08-17T13:59:08.053Z,98449.28
2022-08-17T14:01:37.718Z,98445.13
2022-08-17T14:04:07.758Z,98442.13
2022-08-17T14:06:51.403Z,98447.09
2022-08-17T14:09:24.091Z,98444.84
2022-08-17T14:11:53.973Z,98438.84
2022-08-17T14:14:23.210Z,98441.47
2022-08-17T14:16:50.782Z,98442.69
2022-08-17T14:19:18.501Z,98435.38
2022-08-17T14:21:46.685Z,98434.78
2022-08-17T14:24:21.914Z,98429.06
2022-08-17T14:26:49.015Z,98441.34
2022-08-17T14:29:17.234Z,98434.84
2022-08-17T14:31:48.510Z,98436.44
2022-08-17T14:34:21.465Z,98435.00
2022-08-17T14:36:48.871Z,98430.81
2022-08-17T14:39:16.581Z,98436.81
2022-08-17T14:41:43.637Z,98434.06
2022-08-17T14:44:12.577Z,98438.69
2022-08-17T14:46:43.008Z,98438.50
2022-08-17T14:49:11.176Z,98434.34
2022-08-17T14:51:44.110Z,98439.34
2022-08-17T14:54:32.903Z,98446.13
2022-08-17T14:57:23.322Z,98454.66
2022-08-17T14:59:47.377Z,98453.50
2022-08-17T15:02:19.056Z,98444.75
2022-08-17T15:04:47.708Z,98450.19
2022-08-17T15:07:14.753Z,98443.38
2022-08-17T15:09:41.829Z,98441.75
2022-08-17T15:12:09.069Z,98448.59
2022-08-17T15:14:36.289Z,98444.78
2022-08-17T15:17:03.748Z,98441.63
2022-08-17T15:19:32.060Z,98433.34
2022-08-17T15:21:59.088Z,98435.53
2022-08-17T15:24:26.028Z,98434.56
2022-08-17T15:26:52.898Z,98432.47
2022-08-17T15:29:19.836Z,98436.03
2022-08-17T15:31:46.688Z,98424.78
2022-08-17T15:34:14.359Z,98426.81
2022-08-17T15:36:49.209Z,98420.94
2022-08-17T15:39:19.494Z,98421.56
2022-08-17T15:41:47.369Z,98420.63
2022-08-17T15:44:32.445Z,98432.41
2022-08-17T15:47:01.849Z,98436.84
2022-08-17T15:49:28.720Z,98433.72
2022-08-17T15:51:56.975Z,98431.84
2022-08-17T15:54:24.295Z,98435.91
2022-08-17T15:56:51.181Z,98443.91
2022-08-17T15:59:18.384Z,98440.81
2022-08-17T16:03:14.735Z,98433.72
2022-08-17T16:04:32.552Z,98435.03
2022-08-17T16:07:01.093Z,98430.94
2022-08-17T16:09:28.175Z,98425.81
2022-08-17T16:11:56.136Z,98424.69
2022-08-17T16:14:24.274Z,98428.47
2022-08-17T16:16:52.747Z,98427.41
2022-08-17T16:19:19.700Z,98421.78
2022-08-17T16:21:46.762Z,98423.91
2022-08-17T16:24:15.265Z,98424.97
2022-08-17T16:26:42.745Z,98422.50
2022-08-17T16:29:09.888Z,98426.81
2022-08-17T16:31:37.775Z,98418.56
2022-08-17T16:34:16.752Z,98412.78
2022-08-17T16:36:55.795Z,98408.91
2022-08-17T16:39:26.306Z,98410.72
2022-08-17T16:41:53.261Z,98407.72
2022-08-17T16:44:21.664Z,98406.06
2022-08-17T16:46:50.177Z,98403.34
2022-08-17T16:49:31.909Z,98405.31
2022-08-17T16:52:04.650Z,98394.53
2022-08-17T16:54:33.507Z,98394.31
2022-08-17T16:57:00.420Z,98391.59
2022-08-17T16:59:30.138Z,98382.59
2022-08-17T17:02:04.781Z,98384.59
2022-08-17T17:04:35.097Z,98377.47
2022-08-17T17:07:08.721Z,98378.78
2022-08-17T17:09:40.438Z,98377.69
2022-08-17T17:12:18.989Z,98381.75
2022-08-17T17:15:02.259Z,98378.22
2022-08-17T17:17:32.766Z,98383.94
2022-08-17T17:20:09.861Z,98383.13
2022-08-17T17:22:44.288Z,98383.69
2022-08-17T17:25:19.448Z,98386.19
2022-08-17T17:27:59.948Z,98382.41
2022-08-17T17:30:33.145Z,98379.19
2022-08-17T17:33:04.891Z,98385.75
2022-08-17T17:35:34.846Z,98387.69
2022-08-17T17:38:06.401Z,98387.66
2022-08-17T17:40:41.863Z,98380.09
2022-08-17T17:43:37.049Z,98389.31
2022-08-17T17:46:28.305Z,98395.28
2022-08-17T17:48:50.858Z,98397.16
2022-08-17T17:52:06.441Z,98400.41
2022-08-17T17:54:25.931Z,98409.38
2022-08-17T17:57:03.625Z,98409.09
2022-08-17T17:59:44.298Z,98420.97
2022-08-17T18:02:45.600Z,98423.66
2022-08-17T18:05:39.407Z,98424.72
2022-08-17T18:08:16.760Z,98428.78
2022-08-17T18:10:50.614Z,98430.66
2022-08-17T18:13:32.737Z,98428.47
2022-08-17T18:16:01.084Z,98432.50
2022-08-17T18:18:39.938Z,98435.22
2022-08-17T18:21:16.440Z,98443.81
2022-08-17T18:23:48.043Z,98440.50
2022-08-17T18:26:36.595Z,98441.28
2022-08-17T18:29:15.535Z,98447.44
2022-08-17T18:31:42.483Z,98456.28
2022-08-17T18:34:43.688Z,98455.91
2022-08-17T18:37:10.253Z,98470.31
2022-08-17T18:39:38.434Z,98465.34
2022-08-17T18:42:24.303Z,98483.63
2022-08-17T18:44:55.363Z,98487.31
2022-08-17T18:47:25.534Z,98491.50
2022-08-17T18:49:57.726Z,98498.06
2022-08-17T18:52:29.442Z,98502.38
2022-08-17T18:55:08.994Z,98510.66
2022-08-17T18:57:38.638Z,98517.19
2022-08-17T19:00:15.062Z,98518.56
2022-08-17T19:02:54.824Z,98516.25
2022-08-17T19:05:35.330Z,98526.06
2022-08-17T19:08:19.961Z,98515.91
2022-08-17T19:10:50.134Z,98513.47
2022-08-17T19:13:23.823Z,98511.66
2022-08-17T19:16:14.586Z,98513.84
2022-08-17T19:18:44.811Z,98520.03
2022-08-17T19:21:16.553Z,98527.53
2022-08-17T19:23:53.363Z,98527.06
2022-08-17T19:26:54.075Z,98529.91
2022-08-17T19:29:16.581Z,98537.66
2022-08-17T19:31:48.376Z,98537.84
2022-08-17T19:34:17.120Z,98538.94
2022-08-17T19:37:07.553Z,98548.59
2022-08-17T19:39:43.376Z,98550.88
2022-08-17T19:42:16.603Z,98561.78
2022-08-17T19:44:54.756Z,98560.81
2022-08-17T19:47:53.750Z,98565.34
2022-08-17T19:50:27.999Z,98559.03
2022-08-17T19:53:01.991Z,98555.13
2022-08-17T19:55:43.623Z,98554.69
2022-08-17T19:58:26.833Z,98557.16
2022-08-17T20:00:54.816Z,98557.50
2022-08-17T20:03:27.320Z,98552.97
2022-08-17T20:06:14.265Z,98548.84
2022-08-17T20:08:53.798Z,98543.22
2022-08-17T20:11:27.305Z,98541.78
2022-08-17T20:14:00.661Z,98532.06
2022-08-17T20:16:27.833Z,98534.09
2022-08-17T20:19:00.816Z,98547.03
2022-08-17T20:21:34.520Z,98541.63
2022-08-17T20:24:13.987Z,98534.09
2022-08-17T20:26:57.207Z,98534.69
2022-08-17T20:29:39.824Z,98542.03
2022-08-17T20:32:25.246Z,98531.97
2022-08-17T20:35:07.738Z,98531.88
2022-08-17T20:37:36.200Z,98544.50
2022-08-17T20:40:35.196Z,98550.19
2022-08-17T20:43:44.433Z,98552.16
2022-08-17T20:46:26.791Z,98553.69
2022-08-17T20:48:58.560Z,98556.28
2022-08-17T20:51:31.503Z,98554.19
2022-08-17T20:54:07.195Z,98561.69
2022-08-17T20:56:49.625Z,98565.69
2022-08-17T20:59:52.695Z,98563.94
2022-08-17T21:02:22.418Z,98574.28
2022-08-17T21:05:07.975Z,98571.13
2022-08-17T21:07:55.911Z,98565.88
2022-08-17T21:10:36.406Z,98573.78
2022-08-17T21:13:42.244Z,98565.00
2022-08-17T21:16:27.931Z,98574.28
2022-08-17T21:19:03.975Z,98575.38
2022-08-17T21:21:41.170Z,98576.50
2022-08-17T21:24:27.044Z,98579.19
2022-08-17T21:27:02.181Z,98585.53
2022-08-17T21:29:33.940Z,98589.38
2022-08-17T21:32:18.591Z,98586.38
2022-08-17T21:35:28.742Z,98589.50
2022-08-17T21:38:05.215Z,98582.09
2022-08-17T21:40:34.208Z,98575.56
2022-08-17T21:43:08.333Z,98580.63
2022-08-17T21:45:40.356Z,98584.59
2022-08-17T21:48:12.696Z,98593.25
2022-08-17T21:50:41.754Z,98592.41
2022-08-17T21:53:13.120Z,98596.38
2022-08-17T21:55:41.666Z,98597.91
2022-08-17T21:58:30.466Z,98599.31
2022-08-17T22:01:22.559Z,98615.66
2022-08-17T22:04:00.705Z,98613.69
2022-08-17T22:06:34.191Z,98618.13
2022-08-17T22:09:12.685Z,98618.41
2022-08-17T22:12:07.752Z,98621.44
2022-08-17T22:14:52.667Z,98617.13
2022-08-17T22:17:24.271Z,98615.72
2022-08-17T22:19:53.653Z,98622.84
2022-08-17T22:22:33.592Z,98619.78
2022-08-17T22:25:02.978Z,98619.78
2022-08-17T22:27:54.518Z,98622.34
2022-08-17T22:30:35.188Z,98616.97
2022-08-17T22:33:31.480Z,98615.94
2022-08-17T22:36:10.735Z,98608.56
2022-08-17T22:38:39.170Z,98609.00
2022-08-17T22:41:32.098Z,98610.91
2022-08-17T22:44:02.441Z,98627.81
2022-08-17T22:46:29.538Z,98632.25
2022-08-17T22:48:59.671Z,98631.44
2022-08-17T22:51:29.558Z,98639.09
2022-08-17T22:54:18.207Z,98642.81
2022-08-17T22:57:13.775Z,98646.56
2022-08-17T22:59:47.719Z,98661.19
2022-08-17T23:02:24.550Z,98662.13
2022-08-17T23:04:57.454Z,98659.44
2022-08-17T23:07:24.585Z,98654.59
2022-08-17T23:09:52.941Z,98659.22
2022-08-17T23:12:26.440Z,98661.25
2022-08-17T23:14:59.464Z,98661.38
2022-08-17T23:17:27.849Z,98662.34
2022-08-17T23:19:57.118Z,98664.78
2022-08-17T23:22:25.042Z,98673.97
2022-08-17T23:24:52.092Z,98668.03
2022-08-17T23:27:20.484Z,98663.88
2022-08-17T23:29:48.713Z,98670.22
2022-08-17T23:32:18.331Z,98663.00
2022-08-17T23:34:47.051Z,98665.09
2022-08-17T23:37:16.876Z,98666.50
2022-08-17T23:39:45.182Z,98667.09
2022-08-17T23:42:15.218Z,98670.34
2022-08-17T23:44:43.731Z,98683.69
2022-08-17T23:47:11.412Z,98690.28
2022-08-17T23:49:39.245Z,98700.59
2022-08-17T23:52:10.014Z,98693.28
2022-08-17T23:54:43.693Z,98693.91
2022-08-17T23:57:12.223Z,98687.50
2022-08-17T23:59:40.089Z,98693.72
